Time;durP1;ratioP1;P1;durP2;ratioP2;P2;SDS_P1;SDS_P2;PMS_P1;PMS_P2;Temp;Humidity;BMP_temperature;BMP_pressure;BME280_temperature;BME280_humidity;BME280_pressure;Samples;Min_cycle;Max_cycle;Signal;HPM_P1;HPM_P2
2022/04/21 00:00:05;;;;;;;20.00;11.52;;;;;;;12.60;57.08;101587.19;5015190;28;20083;-59
2022/04/21 00:02:31;;;;;;;20.95;12.10;;;;;;;12.54;57.70;101583.56;5017020;28;20049;-59
2022/04/21 00:04:57;;;;;;;19.58;11.75;;;;;;;12.47;57.58;101592.16;5012045;28;20342;-60
2022/04/21 00:07:23;;;;;;;21.05;11.73;;;;;;;12.50;57.53;101589.63;5017836;28;20126;-57
2022/04/21 00:09:49;;;;;;;17.98;11.27;;;;;;;12.51;57.60;101584.38;5011823;28;20043;-60
2022/04/21 00:12:15;;;;;;;19.60;11.13;;;;;;;12.48;57.54;101584.34;5018449;28;20033;-60
2022/04/21 00:14:43;;;;;;;19.90;11.75;;;;;;;12.44;57.62;101572.06;5007773;28;20157;-59
2022/04/21 00:17:08;;;;;;;17.77;11.38;;;;;;;12.43;57.22;101586.03;5017043;28;20032;-59
2022/04/21 00:19:34;;;;;;;17.70;11.93;;;;;;;12.35;58.08;101576.28;5017204;28;20548;-59
2022/04/21 00:24:44;;;;;;;17.53;11.73;;;;;;;12.30;57.73;101570.97;5009666;28;20145;-60
2022/04/21 00:27:13;;;;;;;17.98;11.43;;;;;;;12.27;57.81;101577.84;4997559;28;20157;-60
2022/04/21 00:29:39;;;;;;;23.80;11.80;;;;;;;12.28;57.44;101571.78;5014754;28;20053;-60
2022/04/21 00:32:04;;;;;;;19.80;11.38;;;;;;;12.29;57.61;101578.78;5016065;28;20563;-59
2022/04/21 00:34:37;;;;;;;17.02;11.32;;;;;;;12.12;57.81;101571.53;5016532;28;20280;-59
2022/04/21 00:37:03;;;;;;;19.20;12.00;;;;;;;12.14;57.58;101569.78;5015909;28;20049;-59
2022/04/21 00:39:31;;;;;;;20.65;11.98;;;;;;;12.13;57.85;101572.41;5013856;28;20651;-59
2022/04/21 00:41:58;;;;;;;17.63;11.65;;;;;;;12.11;57.87;101577.59;5016293;28;20044;-59
2022/04/21 00:44:24;;;;;;;16.27;11.25;;;;;;;12.10;57.60;101574.94;5013808;28;20124;-59
2022/04/21 00:46:50;;;;;;;21.27;11.25;;;;;;;12.11;58.03;101574.09;5006320;28;20548;-60
2022/04/21 00:49:18;;;;;;;17.48;11.20;;;;;;;12.16;57.53;101577.69;5010778;28;21116;-59
2022/04/21 00:51:43;;;;;;;18.33;11.43;;;;;;;12.06;58.05;101575.75;5018410;28;20106;-58
2022/04/21 00:54:09;;;;;;;18.83;11.15;;;;;;;11.99;58.31;101573.88;5018247;28;20101;-60
2022/04/21 00:56:35;;;;;;;18.48;11.27;;;;;;;11.89;59.08;101571.97;5016106;28;20073;-59
2022/04/21 00:59:02;;;;;;;19.27;12.10;;;;;;;11.85;59.06;101570.13;5001407;28;20064;-60
2022/04/21 01:04:13;;;;;;;18.58;11.73;;;;;;;11.79;58.94;101574.38;5021789;28;20514;-59
2022/04/21 01:06:38;;;;;;;18.27;11.90;;;;;;;11.74;59.15;101562.97;5014152;28;20076;-60
2022/04/21 01:09:03;;;;;;;16.63;11.38;;;;;;;11.75;59.07;101567.34;5011481;28;20052;-62
2022/04/21 01:11:29;;;;;;;19.13;11.88;;;;;;;11.71;58.80;101575.91;5016169;28;20501;-57
2022/04/21 01:13:55;;;;;;;20.80;11.73;;;;;;;11.78;59.00;101567.38;5008746;28;20588;-59
2022/04/21 01:16:21;;;;;;;17.50;11.75;;;;;;;11.73;59.17;101562.88;5021866;28;20052;-59
2022/04/21 01:18:46;;;;;;;17.98;11.73;;;;;;;11.68;59.45;101569.75;5007403;28;20045;-58
2022/04/21 01:21:11;;;;;;;19.55;12.13;;;;;;;11.62;59.30;101572.25;5017216;28;20540;-58
2022/04/21 01:23:37;;;;;;;17.05;11.45;;;;;;;11.59;59.47;101564.34;5014736;28;20779;-57
2022/04/21 01:26:02;;;;;;;23.08;11.65;;;;;;;11.55;59.56;101565.13;5014879;28;20048;-59
2022/04/21 01:28:30;;;;;;;19.55;11.23;;;;;;;11.60;59.26;101560.88;5010002;28;20037;-59
2022/04/21 01:30:56;;;;;;;25.65;12.05;;;;;;;11.60;59.43;101561.75;5010192;28;20481;-59
2022/04/21 01:33:21;;;;;;;18.98;11.07;;;;;;;11.57;59.15;101560.84;5016605;28;20613;-59
2022/04/21 01:35:47;;;;;;;20.95;11.30;;;;;;;11.57;59.10;101560.84;4995377;28;20048;-58
2022/04/21 01:41:11;;;;;;;19.80;11.45;;;;;;;11.50;59.08;101558.94;5009116;28;20556;-60
2022/04/21 01:43:40;;;;;;;17.65;10.80;;;;;;;11.45;59.29;101558.84;5013864;28;20231;-59
2022/04/21 01:46:06;;;;;;;18.55;11.23;;;;;;;11.44;59.63;101557.09;5021335;28;20271;-59
2022/04/21 01:48:35;;;;;;;19.23;11.60;;;;;;;11.39;59.74;101554.38;5016500;28;20053;-58
2022/04/21 01:51:01;;;;;;;18.73;11.38;;;;;;;11.44;59.73;101556.22;5003933;28;20045;-59
2022/04/21 01:53:26;;;;;;;19.38;11.10;;;;;;;11.34;59.53;101561.22;5017984;28;20059;-62
2022/04/21 01:55:52;;;;;;;18.38;11.10;;;;;;;11.27;60.12;101556.75;5013891;28;20052;-59
2022/04/21 01:58:17;;;;;;;17.95;10.70;;;;;;;11.21;60.05;101547.91;5014220;28;20045;-59
2022/04/21 02:00:42;;;;;;;18.63;11.63;;;;;;;11.16;60.14;101550.38;5006894;28;20060;-59
2022/04/21 02:03:08;;;;;;;18.10;11.52;;;;;;;11.13;60.17;101550.34;5014182;28;20045;-59
2022/04/21 02:05:34;;;;;;;18.40;11.55;;;;;;;11.07;60.64;101552.81;4998993;28;20379;-58
2022/04/21 02:08:00;;;;;;;18.77;11.40;;;;;;;11.10;60.48;101549.41;5005478;28;20049;-59
2022/04/21 02:10:25;;;;;;;21.67;12.23;;;;;;;11.06;60.68;101553.66;5016904;28;20523;-58
2022/04/21 02:12:51;;;;;;;19.33;11.57;;;;;;;11.03;60.66;101550.09;5009712;28;20136;-59
2022/04/21 02:15:17;;;;;;;19.73;11.13;;;;;;;10.99;60.42;101544.81;5016361;28;20056;-58
2022/04/21 02:17:44;;;;;;;17.88;11.38;;;;;;;10.98;60.43;101540.44;5012971;28;20038;-59
2022/04/21 02:20:15;;;;;;;21.70;11.20;;;;;;;10.98;60.61;101548.25;5012274;28;20697;-58
2022/04/21 02:22:41;;;;;;;19.58;11.43;;;;;;;10.99;60.37;101552.63;5014880;28;20089;-60
2022/04/21 02:25:08;;;;;;;17.25;11.30;;;;;;;11.00;60.34;101548.28;5018962;28;20504;-60
2022/04/21 02:27:35;;;;;;;18.48;11.55;;;;;;;10.92;60.57;101542.91;5018988;28;20053;-60
2022/04/21 02:30:00;;;;;;;17.55;11.70;;;;;;;10.91;61.08;101546.38;5016692;28;20409;-58
2022/04/21 02:32:25;;;;;;;18.20;10.98;;;;;;;10.90;60.75;101547.22;5015334;28;20049;-59
2022/04/21 02:34:53;;;;;;;18.88;11.30;;;;;;;10.85;60.85;101540.16;5011598;28;20052;-59
2022/04/21 02:37:20;;;;;;;17.95;11.15;;;;;;;10.82;60.68;101542.66;5016296;28;20552;-60
2022/04/21 02:39:45;;;;;;;17.15;11.50;;;;;;;10.79;61.14;101551.31;5015851;28;20045;-59
2022/04/21 02:42:11;;;;;;;19.27;11.52;;;;;;;10.85;60.67;101537.53;5018854;28;20520;-58
2022/04/21 02:44:38;;;;;;;17.08;11.10;;;;;;;10.80;60.97;101549.56;4997189;28;20079;-59
2022/04/21 02:47:14;;;;;;;18.73;12.07;;;;;;;10.77;60.96;101541.69;5017231;28;20268;-59
2022/04/21 02:49:45;;;;;;;20.83;11.20;;;;;;;10.75;61.25;101544.25;5012982;28;20047;-60
2022/04/21 02:52:12;;;;;;;18.35;11.48;;;;;;;10.71;61.43;101538.94;5018339;28;20512;-58
2022/04/21 02:57:22;;;;;;;17.88;11.45;;;;;;;10.57;62.00;101536.88;5018832;28;20055;-59
2022/04/21 02:59:50;;;;;;;19.17;11.65;;;;;;;10.54;61.62;101546.38;5022572;28;20041;-59
2022/04/21 03:02:15;;;;;;;20.17;11.43;;;;;;;10.48;62.24;101543.59;5019416;28;20717;-59
2022/04/21 03:04:41;;;;;;;19.17;11.77;;;;;;;10.48;61.53;101539.28;4984501;28;20044;-59
2022/04/21 03:07:06;;;;;;;19.73;11.48;;;;;;;10.51;61.83;101539.34;5018351;28;20139;-60
2022/04/21 03:09:32;;;;;;;21.20;11.68;;;;;;;10.45;61.71;101539.19;5019629;28;20606;-59
2022/04/21 03:12:04;;;;;;;19.40;11.95;;;;;;;10.50;61.53;101540.19;5016440;28;20041;-59
2022/04/21 03:14:29;;;;;;;17.65;10.98;;;;;;;10.46;61.58;101542.69;5019397;28;20044;-59
2022/04/21 03:16:55;;;;;;;21.90;11.77;;;;;;;10.45;61.66;101538.31;4997442;28;20399;-59
2022/04/21 03:19:20;;;;;;;20.23;11.35;;;;;;;10.46;61.31;101533.13;5011327;28;20052;-59
2022/04/21 03:24:30;;;;;;;19.80;11.32;;;;;;;10.41;61.37;101528.66;5021297;28;20349;-60
2022/04/21 03:26:55;;;;;;;19.60;11.80;;;;;;;10.38;62.30;101536.38;5002117;28;20041;-59
2022/04/21 03:29:21;;;;;;;17.40;11.10;;;;;;;10.39;61.94;101540.75;5018031;28;20483;-59
2022/04/21 03:31:48;;;;;;;18.63;11.73;;;;;;;10.35;62.10;101532.00;5011701;28;20102;-59
2022/04/21 03:34:15;;;;;;;20.10;11.18;;;;;;;10.34;62.02;101534.56;5019618;28;20074;-59
2022/04/21 03:36:50;;;;;;;19.40;11.05;;;;;;;10.34;61.88;101542.38;5011412;28;20045;-59
2022/04/21 03:39:21;;;;;;;18.90;11.93;;;;;;;10.29;62.25;101541.38;5010000;28;20495;-59
2022/04/21 03:41:53;;;;;;;18.90;11.40;;;;;;;10.24;62.33;101541.28;5021587;28;20148;-60
2022/04/21 03:44:23;;;;;;;18.45;11.38;;;;;;;10.12;62.73;101547.00;5014394;28;20048;-60
2022/04/21 03:46:49;;;;;;;20.60;11.82;;;;;;;10.08;62.72;101544.28;5003977;28;20694;-59
2022/04/21 03:49:14;;;;;;;18.35;11.55;;;;;;;9.94;63.50;101540.44;4999742;28;20087;-59
2022/04/21 03:51:40;;;;;;;18.17;11.77;;;;;;;9.87;63.56;101536.81;5018220;28;20450;-58
2022/04/21 03:54:06;;;;;;;18.23;11.45;;;;;;;9.85;63.40;101530.66;5016694;28;20049;-60
2022/04/21 03:56:32;;;;;;;18.15;11.55;;;;;;;9.84;63.57;101538.44;5018211;28;20052;-59
2022/04/21 03:58:57;;;;;;;18.05;11.52;;;;;;;9.77;64.46;101534.78;5003340;28;20049;-58
2022/04/21 04:01:23;;;;;;;18.02;11.35;;;;;;;9.81;64.03;101541.84;5015648;28;20531;-59
2022/04/21 04:03:49;;;;;;;21.90;11.55;;;;;;;9.75;63.97;101539.06;5017512;28;20450;-59
2022/04/21 04:11:44;;;;;;;;;;;;;;;9.66;63.98;101539.69;5020153;28;21801;-59
2022/04/21 04:14:15;;;;;;;20.73;11.85;;;;;;;9.61;64.03;101536.09;5020635;28;19920;-60
2022/04/21 04:16:40;;;;;;;19.50;11.40;;;;;;;9.61;64.49;101533.47;5008217;28;20049;-60
2022/04/21 04:19:09;;;;;;;18.52;11.48;;;;;;;9.61;63.95;101537.81;5007788;28;20130;-60
2022/04/21 04:21:35;;;;;;;17.90;10.95;;;;;;;9.55;64.98;101537.63;5009992;28;20044;-59
2022/04/21 04:24:00;;;;;;;17.10;11.50;;;;;;;9.54;64.96;101531.53;5017079;28;20044;-59
2022/04/21 04:26:26;;;;;;;18.42;11.48;;;;;;;9.57;64.81;101538.56;5017266;28;20044;-60
2022/04/21 04:28:52;;;;;;;19.17;11.43;;;;;;;9.54;64.59;101534.16;5009900;28;20084;-59
2022/04/21 04:31:17;;;;;;;18.65;11.50;;;;;;;9.57;64.26;101535.97;5007843;28;20763;-60
2022/04/21 04:33:43;;;;;;;19.48;12.02;;;;;;;9.52;64.94;101538.41;5017949;28;20300;-60
2022/04/21 04:36:13;;;;;;;18.70;11.88;;;;;;;9.56;64.83;101549.81;5017598;28;20052;-59
2022/04/21 04:38:39;;;;;;;19.45;11.50;;;;;;;9.55;64.61;101542.84;5013403;28;20065;-59
2022/04/21 04:43:49;;;;;;;20.08;11.70;;;;;;;9.64;64.43;101546.56;5018362;28;20106;-60
2022/04/21 04:48:58;;;;;;;21.05;11.13;;;;;;;9.45;64.81;101546.03;5008946;28;20170;-57
2022/04/21 04:51:24;;;;;;;18.73;11.15;;;;;;;9.44;64.81;101539.06;5015670;28;20484;-58
2022/04/21 04:53:49;;;;;;;17.65;11.15;;;;;;;9.71;64.38;101539.81;5014867;28;20871;-60
2022/04/21 04:56:14;;;;;;;21.08;11.15;;;;;;;9.89;63.88;101542.03;5008903;28;20037;-59
2022/04/21 04:58:41;;;;;;;18.23;11.38;;;;;;;9.93;63.31;101536.97;5006848;28;20056;-58
2022/04/21 05:01:06;;;;;;;19.13;11.32;;;;;;;10.06;63.22;101535.56;5018137;28;20045;-58
2022/04/21 05:03:32;;;;;;;17.83;11.40;;;;;;;10.15;63.02;101541.88;5012045;28;20045;-59
2022/04/21 05:05:57;;;;;;;18.23;11.35;;;;;;;10.24;62.57;101550.81;5017984;28;20056;-60
2022/04/21 05:08:23;;;;;;;20.02;10.88;;;;;;;10.36;62.29;101538.97;4998766;28;20056;-59
2022/04/21 05:10:48;;;;;;;17.92;11.18;;;;;;;10.46;61.42;101540.97;4969348;28;20128;-61
2022/04/21 05:13:14;;;;;;;17.00;10.98;;;;;;;10.60;61.18;101549.13;5014637;28;20041;-58
2022/04/21 05:15:39;;;;;;;19.55;11.15;;;;;;;10.68;61.26;101549.28;5014346;28;20131;-58
2022/04/21 05:18:05;;;;;;;17.13;10.75;;;;;;;10.78;60.69;101548.66;5017935;28;20106;-58
2022/04/21 05:20:30;;;;;;;17.80;10.73;;;;;;;10.86;60.45;101549.69;5013313;28;20451;-57
2022/04/21 05:23:06;;;;;;;18.20;10.77;;;;;;;10.93;59.77;101549.88;5014669;28;20779;-58
2022/04/21 05:25:33;;;;;;;18.55;10.73;;;;;;;11.02;59.94;101546.63;5017388;28;20083;-59
2022/04/21 05:27:59;;;;;;;20.15;10.90;;;;;;;10.92;59.48;101553.34;5018511;28;20457;-59
2022/04/21 05:33:15;;;;;;;19.10;10.73;;;;;;;11.01;60.06;101551.78;5020140;28;20447;-60
2022/04/21 05:35:42;;;;;;;17.30;10.48;;;;;;;11.10;59.63;101547.66;5021690;28;20479;-58
2022/04/21 05:38:07;;;;;;;18.20;10.75;;;;;;;11.21;59.65;101545.28;5007719;28;20056;-58
2022/04/21 05:40:36;;;;;;;17.15;10.75;;;;;;;11.19;59.04;101558.28;5014612;28;20065;-58
2022/04/21 05:43:07;;;;;;;17.02;10.57;;;;;;;11.21;59.29;101553.13;5016299;28;20060;-59
2022/04/21 05:45:33;;;;;;;18.52;10.45;;;;;;;11.29;58.89;101551.53;5008209;28;20373;-59
2022/04/21 05:47:58;;;;;;;17.40;10.30;;;;;;;11.38;58.99;101550.00;5012926;28;20064;-60
2022/04/21 05:50:25;;;;;;;18.88;10.25;;;;;;;11.34;59.23;101548.16;5011012;28;20045;-59
2022/04/21 05:52:52;;;;;;;22.88;10.55;;;;;;;11.56;58.63;101548.63;5015709;28;22224;-59
2022/04/21 05:55:18;;;;;;;18.63;10.68;;;;;;;11.60;58.18;101547.81;5017519;28;20411;-59
2022/04/21 05:57:44;;;;;;;28.10;10.40;;;;;;;11.78;57.67;101545.59;5020312;28;20091;-58
2022/04/21 06:00:10;;;;;;;27.35;11.00;;;;;;;11.85;58.00;101543.97;5016630;28;20132;-60
2022/04/21 06:02:37;;;;;;;23.20;10.90;;;;;;;11.85;57.38;101550.09;4977195;28;21505;-58
2022/04/21 06:05:03;;;;;;;21.60;10.68;;;;;;;11.95;57.89;101557.28;5017410;28;20552;-59
2022/04/21 06:07:28;;;;;;;18.80;10.02;;;;;;;12.09;57.44;101550.53;5019144;28;20635;-59
2022/04/21 06:09:54;;;;;;;15.90;10.18;;;;;;;12.54;57.15;101554.81;5014056;28;20055;-60
2022/04/21 06:12:19;;;;;;;15.55;9.27;;;;;;;13.52;54.44;101549.25;5012779;28;20037;-59
2022/04/21 06:14:45;;;;;;;19.08;8.75;;;;;;;14.62;50.80;101554.75;4993302;28;20245;-58
2022/04/21 06:17:10;;;;;;;13.88;8.40;;;;;;;16.04;47.74;101549.31;5008605;28;20485;-60
2022/04/21 06:19:36;;;;;;;13.88;8.45;;;;;;;17.16;44.69;101545.78;5019544;28;20130;-57
2022/04/21 06:22:01;;;;;;;12.75;8.75;;;;;;;18.10;43.18;101550.63;5021630;28;20045;-59
2022/04/21 06:24:26;;;;;;;10.63;8.25;;;;;;;18.97;39.71;101539.31;5016604;28;20567;-58
2022/04/21 06:26:52;;;;;;;12.45;8.23;;;;;;;18.64;40.67;101546.72;5002455;28;20045;-59
2022/04/21 06:29:17;;;;;;;10.85;7.75;;;;;;;19.67;38.23;101538.53;5021851;28;20076;-59
2022/04/21 06:31:43;;;;;;;11.30;7.28;;;;;;;19.65;37.24;101537.66;5021968;28;20128;-58
2022/04/21 06:34:08;;;;;;;12.05;7.35;;;;;;;19.67;36.66;101530.59;5000199;28;20048;-58
2022/04/21 06:36:37;;;;;;;11.80;8.05;;;;;;;19.80;36.71;101537.47;5003609;28;20118;-59
2022/04/21 06:39:03;;;;;;;10.05;7.60;;;;;;;19.60;36.52;101534.22;5009551;28;20036;-60
2022/04/21 06:41:29;;;;;;;13.48;7.97;;;;;;;19.79;36.16;101531.31;5019483;28;20079;-59
2022/04/21 06:49:22;;;;;;;9.68;7.35;;;;;;;20.02;36.18;101528.31;4998197;28;20089;-58
2022/04/21 06:51:47;;;;;;;9.85;7.55;;;;;;;19.81;35.55;101521.56;5012503;28;20045;-58
2022/04/21 06:54:13;;;;;;;9.52;6.97;;;;;;;19.78;36.26;101526.03;5021426;28;20045;-59
2022/04/21 06:56:38;;;;;;;10.93;7.60;;;;;;;19.85;35.95;101525.03;5009693;28;20475;-59
2022/04/21 06:59:05;;;;;;;12.23;7.30;;;;;;;20.29;35.17;101519.06;5010987;28;20330;-59
2022/04/21 07:01:31;;;;;;;10.57;6.88;;;;;;;21.03;34.27;101522.19;5001355;28;20069;-58
2022/04/21 07:03:56;;;;;;;11.98;7.43;;;;;;;20.97;33.94;101523.19;5003525;28;20098;-59
2022/04/21 07:06:21;;;;;;;9.45;6.85;;;;;;;21.18;33.05;101519.25;5012976;28;20839;-59
2022/04/21 07:08:48;;;;;;;8.43;6.18;;;;;;;21.13;34.49;101520.22;4998640;28;20102;-59
2022/04/21 07:11:15;;;;;;;9.40;6.70;;;;;;;20.86;33.95;101525.13;5018113;28;20048;-59
2022/04/21 07:13:41;;;;;;;10.43;7.47;;;;;;;20.20;35.93;101527.16;5015170;28;20041;-59
2022/04/21 07:16:06;;;;;;;10.07;6.60;;;;;;;20.88;33.64;101522.47;5019799;28;20178;-59
2022/04/21 07:18:31;;;;;;;10.10;6.78;;;;;;;20.70;34.13;101528.09;4998271;28;20734;-58
2022/04/21 07:21:00;;;;;;;11.13;7.10;;;;;;;20.74;34.83;101528.00;5011138;28;20334;-59
2022/04/21 07:23:26;;;;;;;11.48;6.93;;;;;;;19.95;36.16;101521.34;5013240;28;20539;-60
2022/04/21 07:25:51;;;;;;;9.35;6.78;;;;;;;20.46;35.12;101526.75;5014327;28;20051;-59
2022/04/21 07:28:16;;;;;;;9.50;6.55;;;;;;;21.61;33.28;101528.97;5015969;28;20045;-59
2022/04/21 07:30:42;;;;;;;8.18;5.80;;;;;;;21.98;32.76;101527.28;5011418;28;20049;-59
2022/04/21 07:33:07;;;;;;;9.70;6.78;;;;;;;21.30;33.80;101529.63;5020879;28;20029;-59
2022/04/21 07:35:34;;;;;;;8.32;6.15;;;;;;;21.59;32.92;101521.03;5018989;28;20036;-59
2022/04/21 07:37:59;;;;;;;8.57;6.43;;;;;;;21.24;33.18;101528.88;5011314;28;20041;-59
2022/04/21 07:40:25;;;;;;;11.15;6.90;;;;;;;20.43;34.26;101524.19;5019118;28;20102;-59
2022/04/21 07:42:50;;;;;;;10.57;6.35;;;;;;;21.23;33.30;101520.03;5011976;28;20467;-59
2022/04/21 07:45:15;;;;;;;9.77;6.43;;;;;;;21.11;33.87;101525.53;5016261;28;20472;-58
2022/04/21 07:47:40;;;;;;;9.23;6.40;;;;;;;20.90;33.70;101510.06;5013562;28;20534;-59
2022/04/21 07:50:06;;;;;;;9.38;6.53;;;;;;;21.17;33.83;101520.16;5001461;28;20045;-59
2022/04/21 07:55:21;;;;;;;9.73;5.80;;;;;;;21.85;31.81;101512.50;5014872;28;20137;-57
2022/04/21 07:57:47;;;;;;;10.45;6.72;;;;;;;21.46;33.40;101516.94;5014529;28;20048;-59
2022/04/21 08:00:15;;;;;;;11.18;6.38;;;;;;;21.20;35.18;101516.56;5010784;28;20055;-58
2022/04/21 08:02:42;;;;;;;10.00;6.28;;;;;;;21.12;33.63;101522.00;5010692;28;20056;-58
2022/04/21 08:05:09;;;;;;;9.07;6.28;;;;;;;20.67;34.87;101522.88;5020484;28;20043;-58
2022/04/21 08:07:35;;;;;;;7.90;6.00;;;;;;;19.41;35.94;101515.03;5014903;28;20091;-57
2022/04/21 08:10:05;;;;;;;10.48;6.47;;;;;;;19.23;38.62;101523.19;5012610;28;20634;-58
2022/04/21 08:12:40;;;;;;;13.18;6.65;;;;;;;18.53;39.15;101530.06;5011775;28;20635;-59
2022/04/21 08:15:07;;;;;;;12.80;7.07;;;;;;;18.47;38.57;101537.16;5013847;28;20230;-59
2022/04/21 08:17:33;;;;;;;11.30;7.10;;;;;;;17.97;38.72;101530.50;5017033;28;20044;-58
2022/04/21 08:19:58;;;;;;;10.82;7.07;;;;;;;17.79;39.44;101533.25;5016684;28;20075;-59
2022/04/21 08:22:23;;;;;;;10.65;7.00;;;;;;;18.03;40.76;101538.38;5019735;28;20120;-58
2022/04/21 08:33:00;;;;;;;10.43;7.30;;;;;;;17.79;40.00;101541.16;5005538;28;20111;-59
2022/04/21 08:35:26;;;;;;;10.77;6.72;;;;;;;17.66;40.44;101539.47;5016141;28;20140;-59
2022/04/21 08:37:51;;;;;;;9.00;6.13;;;;;;;17.70;38.96;101536.78;5010286;28;20069;-58
2022/04/21 08:40:16;;;;;;;11.40;5.82;;;;;;;17.70;39.17;101538.53;5005341;28;20053;-59
2022/04/21 08:42:43;;;;;;;9.43;6.22;;;;;;;17.49;39.55;101536.00;5009661;28;20524;-60
2022/04/21 08:45:10;;;;;;;9.02;6.10;;;;;;;17.68;40.15;101543.84;5013060;28;20450;-59
2022/04/21 08:47:39;;;;;;;9.75;5.88;;;;;;;17.72;39.13;101542.06;5007729;28;20110;-58
2022/04/21 08:50:12;;;;;;;9.68;6.10;;;;;;;17.87;39.84;101538.47;5015617;28;20043;-60
2022/04/21 08:52:39;;;;;;;8.60;6.20;;;;;;;17.86;39.55;101537.59;5012379;28;20101;-59
2022/04/21 08:55:05;;;;;;;7.97;5.93;;;;;;;18.10;39.28;101544.47;5005611;28;20107;-60
2022/04/21 08:57:31;;;;;;;7.40;5.78;;;;;;;18.09;39.07;101540.97;5014121;28;20037;-60
2022/04/21 08:59:57;;;;;;;9.25;5.82;;;;;;;18.35;40.08;101534.63;4987635;28;20024;-59
2022/04/21 09:02:41;;;;;;;8.20;5.78;;;;;;;18.37;39.57;101538.09;5006203;28;20033;-58
2022/04/21 09:05:08;;;;;;;11.63;5.70;;;;;;;18.41;40.18;101534.56;5017993;28;20514;-58
2022/04/21 09:07:45;;;;;;;15.30;6.05;;;;;;;18.46;39.29;101528.34;5015858;28;20055;-58
2022/04/21 09:10:12;;;;;;;11.27;5.70;;;;;;;18.24;39.51;101532.03;5013076;28;20051;-60
2022/04/21 09:12:47;;;;;;;9.35;5.75;;;;;;;18.09;40.07;101534.81;5019219;28;20033;-58
2022/04/21 09:15:17;;;;;;;8.70;6.18;;;;;;;18.11;40.87;101533.88;5011995;28;20041;-59
2022/04/21 09:17:48;;;;;;;10.45;6.07;;;;;;;18.25;40.82;101534.66;5015545;28;20076;-60
2022/04/21 09:20:16;;;;;;;10.43;6.68;;;;;;;18.26;40.88;101532.91;5013065;28;20139;-59
2022/04/21 09:22:55;;;;;;;12.27;6.25;;;;;;;18.36;40.40;101518.75;5008674;28;20049;-60
2022/04/21 09:25:25;;;;;;;10.68;6.00;;;;;;;18.01;40.84;101519.00;5017330;28;20048;-58
2022/04/21 09:27:52;;;;;;;8.65;5.78;;;;;;;18.47;40.26;101526.59;5013864;28;20041;-60
2022/04/21 09:30:18;;;;;;;8.90;6.07;;;;;;;18.53;39.21;101521.25;5017674;28;20037;-58
2022/04/21 09:32:53;;;;;;;7.82;5.70;;;;;;;18.21;39.37;101525.03;5010678;28;20110;-60
2022/04/21 09:35:20;;;;;;;8.20;6.20;;;;;;;18.20;39.52;101514.47;5021143;28;20425;-59
2022/04/21 09:37:54;;;;;;;11.10;6.00;;;;;;;18.37;39.76;101511.69;5016331;28;20080;-59
2022/04/21 09:40:21;;;;;;;8.50;6.00;;;;;;;18.52;38.48;101506.31;5009482;28;20059;-60
2022/04/21 09:43:01;;;;;;;7.05;5.28;;;;;;;18.68;39.61;101513.22;5010238;28;20045;-59
2022/04/21 09:48:22;;;;;;;11.48;5.18;;;;;;;18.61;37.82;101499.19;5013980;28;20159;-60
2022/04/21 09:50:51;;;;;;;7.25;5.38;;;;;;;18.67;36.67;101506.16;5012315;28;20056;-58
2022/04/21 09:53:21;;;;;;;8.65;5.10;;;;;;;18.75;36.28;101496.41;5017280;28;20049;-59
2022/04/21 09:55:49;;;;;;;9.98;5.25;;;;;;;18.75;36.96;101500.81;5018496;28;20114;-60
2022/04/21 09:58:16;;;;;;;8.43;5.20;;;;;;;18.97;38.13;101500.56;5021649;28;20055;-59
2022/04/21 10:00:42;;;;;;;7.05;5.07;;;;;;;18.82;36.80;101497.22;5017067;28;20616;-59
2022/04/21 10:03:08;;;;;;;7.57;5.10;;;;;;;18.87;35.26;101495.41;5018246;28;20392;-60
2022/04/21 10:05:37;;;;;;;7.88;4.80;;;;;;;18.63;35.07;101500.06;5013290;28;20044;-60
2022/04/21 10:08:04;;;;;;;8.30;4.80;;;;;;;18.43;36.07;101486.13;5017110;28;20059;-59
2022/04/21 10:10:31;;;;;;;11.32;5.28;;;;;;;18.94;36.81;101473.31;5017698;28;20045;-58
2022/04/21 10:13:01;;;;;;;10.07;4.63;;;;;;;19.25;35.90;101479.09;5003309;28;20037;-59
2022/04/21 10:15:29;;;;;;;7.15;4.70;;;;;;;19.15;33.65;101474.84;5012317;28;20044;-58
2022/04/21 10:17:54;;;;;;;11.13;4.30;;;;;;;18.89;33.65;101470.72;5010920;28;20358;-58
2022/04/21 10:20:24;;;;;;;7.07;4.53;;;;;;;18.84;35.04;101476.97;5013942;28;20412;-57
2022/04/21 10:22:51;;;;;;;5.63;4.05;;;;;;;18.91;32.89;101475.97;5011510;28;20309;-58
2022/04/21 10:25:18;;;;;;;5.97;3.70;;;;;;;18.82;32.57;101469.03;5022075;28;20041;-58
2022/04/21 10:27:49;;;;;;;4.50;3.40;;;;;;;18.97;33.36;101473.25;5007447;28;20484;-59
2022/04/21 10:30:25;;;;;;;7.35;3.50;;;;;;;18.87;32.44;101469.00;5020249;28;20402;-60
2022/04/21 10:32:56;;;;;;;8.07;3.78;;;;;;;19.23;32.35;101460.63;5012047;28;20407;-60
2022/04/21 10:35:27;;;;;;;6.75;4.00;;;;;;;19.26;31.56;101465.00;5025820;28;20083;-60
2022/04/21 10:38:18;;;;;;;6.43;4.30;;;;;;;19.16;32.33;101458.06;5018279;28;20071;-59
2022/04/21 10:40:56;;;;;;;6.22;4.18;;;;;;;19.25;31.92;101452.66;5010570;28;20056;-60
2022/04/21 10:43:22;;;;;;;7.00;4.30;;;;;;;19.21;31.92;101457.09;5015785;28;20647;-59
2022/04/21 10:46:07;;;;;;;7.68;4.85;;;;;;;19.26;33.36;101459.72;5016351;28;20056;-60
2022/04/21 10:48:43;;;;;;;6.53;4.90;;;;;;;19.18;34.45;101443.94;4992926;28;20609;-59
2022/04/21 10:51:10;;;;;;;8.63;4.75;;;;;;;19.36;35.60;101448.09;5011376;28;20400;-58
2022/04/21 10:59:29;;;;;;;8.32;3.72;;;;;;;18.76;30.31;101455.03;5021052;28;20419;-58
2022/04/21 11:01:54;;;;;;;8.13;4.32;;;;;;;18.59;31.37;101442.00;5015567;28;20041;-58
2022/04/21 11:04:22;;;;;;;5.43;4.00;;;;;;;18.96;31.27;101442.47;5022380;28;20075;-62
2022/04/21 11:06:51;;;;;;;6.82;4.50;;;;;;;18.87;31.67;101432.00;4989771;28;20067;-59
2022/04/21 11:09:53;;;;;;;6.45;4.30;;;;;;;18.84;30.19;101432.06;5013932;28;21152;-59
2022/04/21 11:12:43;;;;;;;7.75;3.85;;;;;;;18.79;30.71;101426.78;4955789;28;20115;-59
2022/04/21 11:15:33;;;;;;;6.45;3.78;;;;;;;18.66;30.47;101421.69;5000812;28;20029;-60
2022/04/21 11:18:05;;;;;;;4.95;3.55;;;;;;;18.76;32.74;101431.25;5013476;28;20024;-60
2022/04/21 11:20:31;;;;;;;11.23;3.70;;;;;;;18.95;31.17;101424.88;5014572;28;20067;-60
2022/04/21 11:22:56;;;;;;;5.07;3.05;;;;;;;19.00;29.69;101423.03;5010483;28;21033;-59
2022/04/21 11:25:22;;;;;;;5.05;3.30;;;;;;;18.71;29.96;101428.66;5007567;28;20045;-58
2022/04/21 11:27:48;;;;;;;6.18;3.45;;;;;;;18.45;31.29;101412.19;5016144;28;20041;-60
2022/04/21 11:30:14;;;;;;;4.70;3.00;;;;;;;18.99;30.92;101413.34;5019108;28;20048;-60
2022/04/21 11:32:49;;;;;;;5.97;3.20;;;;;;;19.14;29.99;101409.66;5011986;28;20045;-59
2022/04/21 11:35:16;;;;;;;8.95;5.28;;;;;;;19.18;29.93;101404.28;5016306;28;20053;-59
2022/04/21 11:37:50;;;;;;;4.70;2.30;;;;;;;19.38;28.54;101406.66;5020274;28;20040;-59
2022/04/21 11:40:27;;;;;;;6.33;2.90;;;;;;;19.39;29.69;101408.41;5015941;28;20053;-59
2022/04/21 11:42:55;;;;;;;5.05;2.72;;;;;;;19.43;30.35;101413.63;5009214;28;20124;-58
2022/04/21 11:45:22;;;;;;;8.05;2.80;;;;;;;19.43;31.03;101405.72;5014684;28;20461;-59
2022/04/21 11:47:47;;;;;;;6.75;2.53;;;;;;;19.76;28.92;101404.34;5014493;28;20530;-58
2022/04/21 11:50:29;;;;;;;7.00;2.85;;;;;;;19.91;30.42;101402.34;5016373;28;20044;-59
2022/04/21 11:52:56;;;;;;;4.93;3.05;;;;;;;20.11;28.81;101394.94;5009550;28;20512;-60
2022/04/21 11:55:27;;;;;;;5.22;2.30;;;;;;;19.97;26.21;101389.00;5006387;28;20349;-60
2022/04/21 11:57:52;;;;;;;4.22;1.92;;;;;;;19.78;25.85;101391.09;5017075;28;20247;-59
2022/04/21 12:06:27;;;;;;;3.47;1.92;;;;;;;19.13;26.26;101385.00;5020379;28;20044;-59
2022/04/21 12:06:44;;;;;;;5.15;1.95;;;;;;;19.62;27.28;101406.34;5017608;28;20502;-59
2022/04/21 12:08:48;;;;;;;4.97;2.80;;;;;;;19.47;27.45;101388.03;5006512;28;20044;-59
2022/04/21 12:11:17;;;;;;;6.03;2.80;;;;;;;19.49;27.90;101388.03;5015581;28;20387;-60
2022/04/21 12:13:43;;;;;;;7.25;3.17;;;;;;;19.78;28.60;101386.66;5010070;28;20543;-58